Terminal Aerodrome Forecast
Issued by NWS

Home | Current Version | Previous Version | Text Only | Print | Product List | Glossary On
Versions: 1 2 3 4 5 6 7 8 9 10 11 12 13 14
000
FTUS45 KREV 192300
TAFTRK
TAF
KTRK 192326Z 2000/2024 24010G20KT P6SM FEW080 SCT180
     FM200300 VRB03KT P6SM FEW180
     FM201800 36007KT P6SM SKC
      AMD NOT SKED 2002/2012=

USA.gov is the U.S. government's official web portal to all federal, state and local government web resources and services.